createdAt,value
2022-10-31T00:01:24.140Z,3.10
2022-10-31T00:03:50.765Z,3.10
2022-10-31T00:06:20.772Z,3.33
2022-10-31T00:08:52.080Z,2.85
2022-10-31T00:11:18.665Z,4.22
2022-10-31T00:13:45.241Z,3.25
2022-10-31T00:16:22.747Z,3.70
2022-10-31T00:18:51.496Z,3.15
2022-10-31T00:21:18.513Z,3.63
2022-10-31T00:23:46.547Z,3.42
2022-10-31T00:26:13.412Z,3.05
2022-10-31T00:28:40.285Z,3.03
2022-10-31T00:31:10.194Z,2.65
2022-10-31T00:33:39.142Z,2.95
2022-10-31T00:36:07.805Z,3.03
2022-10-31T00:38:34.530Z,4.38
2022-10-31T00:41:01.116Z,2.72
2022-10-31T00:43:27.680Z,3.00
2022-10-31T00:45:54.243Z,2.80
2022-10-31T00:48:20.849Z,3.40
2022-10-31T00:50:47.430Z,3.15
2022-10-31T00:53:14.029Z,3.25
2022-10-31T00:55:40.612Z,2.95
2022-10-31T00:58:07.248Z,3.00
2022-10-31T01:00:33.917Z,3.00
2022-10-31T01:03:01.157Z,3.08
2022-10-31T01:05:28.045Z,3.50
2022-10-31T01:07:54.760Z,3.70
2022-10-31T01:10:21.657Z,3.25
2022-10-31T01:12:49.867Z,3.50
2022-10-31T01:15:22.189Z,2.70
2022-10-31T01:17:49.168Z,3.88
2022-10-31T01:20:17.058Z,2.75
2022-10-31T01:22:43.785Z,3.03
2022-10-31T01:25:11.401Z,3.63
2022-10-31T01:27:39.609Z,3.30
2022-10-31T01:30:07.201Z,3.10
2022-10-31T01:32:33.825Z,3.20
2022-10-31T01:35:00.389Z,3.17
2022-10-31T01:37:27.155Z,3.08
2022-10-31T01:39:53.753Z,3.05
2022-10-31T01:42:23.018Z,3.45
2022-10-31T01:44:53.942Z,3.60
2022-10-31T01:47:30.885Z,3.28
2022-10-31T01:50:02.470Z,3.40
2022-10-31T01:52:33.095Z,2.67
2022-10-31T01:55:05.218Z,3.30
2022-10-31T01:57:34.427Z,3.22
2022-10-31T02:00:06.242Z,3.33
2022-10-31T02:02:33.136Z,3.33
2022-10-31T02:05:03.164Z,3.50
2022-10-31T02:07:42.142Z,3.40
2022-10-31T02:10:08.838Z,2.80
2022-10-31T02:12:37.126Z,3.40
2022-10-31T02:15:05.502Z,3.58
2022-10-31T02:17:33.465Z,3.33
2022-10-31T02:20:16.774Z,3.47
2022-10-31T02:23:29.645Z,3.33
2022-10-31T02:26:08.345Z,2.78
2022-10-31T02:29:31.997Z,3.20
2022-10-31T02:32:09.376Z,3.47
2022-10-31T02:34:53.627Z,3.15
2022-10-31T02:37:38.974Z,3.33
2022-10-31T02:40:37.486Z,3.35
2022-10-31T02:43:28.282Z,3.17
2022-10-31T02:46:03.105Z,2.90
2022-10-31T02:48:31.562Z,2.95
2022-10-31T02:51:02.280Z,3.25
2022-10-31T02:53:34.809Z,3.53
2022-10-31T02:56:19.339Z,3.63
2022-10-31T02:59:00.629Z,3.50
2022-10-31T03:02:01.284Z,3.75
2022-10-31T03:05:13.736Z,3.60
2022-10-31T03:08:00.985Z,3.47
2022-10-31T03:11:00.140Z,3.35
2022-10-31T03:14:01.895Z,3.53
2022-10-31T03:16:50.290Z,3.65
2022-10-31T03:19:27.669Z,3.65
2022-10-31T03:22:09.883Z,3.78
2022-10-31T03:24:40.133Z,3.75
2022-10-31T03:27:11.068Z,3.25
2022-10-31T03:29:40.417Z,3.42
2022-10-31T03:32:32.735Z,3.45
2022-10-31T03:35:04.447Z,3.53
2022-10-31T03:37:33.862Z,3.35
2022-10-31T03:40:03.486Z,3.70
2022-10-31T03:42:33.061Z,3.63
2022-10-31T03:45:12.946Z,3.65
2022-10-31T03:47:40.908Z,3.30
2022-10-31T03:50:09.756Z,4.13
2022-10-31T03:52:49.306Z,3.42
2022-10-31T03:55:20.291Z,4.18
2022-10-31T03:58:09.260Z,3.33
2022-10-31T04:00:39.415Z,3.30
2022-10-31T04:03:35.591Z,3.42
2022-10-31T04:06:09.139Z,3.85
2022-10-31T04:08:49.603Z,3.53
2022-10-31T04:11:20.031Z,3.20
2022-10-31T04:13:48.869Z,3.53
2022-10-31T04:16:17.525Z,3.72
2022-10-31T04:18:44.921Z,3.00
2022-10-31T04:21:11.514Z,3.42
2022-10-31T04:23:38.944Z,3.30
2022-10-31T04:26:05.721Z,3.58
2022-10-31T04:28:34.648Z,4.05
2022-10-31T04:31:01.604Z,4.55
2022-10-31T04:33:28.176Z,4.63
2022-10-31T04:35:54.728Z,4.95
2022-10-31T04:38:21.326Z,4.47
2022-10-31T04:40:47.899Z,4.50
2022-10-31T04:43:14.540Z,3.97
2022-10-31T04:45:41.136Z,4.22
2022-10-31T04:48:07.702Z,4.32
2022-10-31T04:50:34.308Z,4.10
2022-10-31T04:53:00.932Z,3.97
2022-10-31T04:55:27.522Z,4.65
2022-10-31T04:57:54.145Z,4.65
2022-10-31T05:00:22.962Z,4.20
2022-10-31T05:02:58.613Z,4.32
2022-10-31T05:05:31.486Z,4.40
2022-10-31T05:07:58.290Z,4.57
2022-10-31T05:10:29.646Z,4.15
2022-10-31T05:12:59.366Z,4.25
2022-10-31T05:15:28.379Z,4.32
2022-10-31T05:17:55.935Z,4.20
2022-10-31T05:20:29.091Z,4.15
2022-10-31T05:22:58.323Z,4.90
2022-10-31T05:25:28.527Z,4.72
2022-10-31T05:27:57.105Z,4.22
2022-10-31T05:30:28.244Z,3.45
2022-10-31T05:32:55.406Z,4.32
2022-10-31T05:35:26.238Z,3.67
2022-10-31T05:37:53.061Z,3.47
2022-10-31T05:40:21.827Z,4.07
2022-10-31T05:42:52.435Z,3.55
2022-10-31T05:45:20.785Z,4.10
2022-10-31T05:48:02.633Z,3.50
2022-10-31T05:50:31.880Z,4.18
2022-10-31T05:53:04.640Z,3.53
2022-10-31T05:55:32.409Z,3.63
2022-10-31T05:57:59.524Z,3.80
2022-10-31T06:00:26.992Z,4.78
2022-10-31T06:03:07.038Z,3.65
2022-10-31T06:05:34.203Z,3.53
2022-10-31T06:08:01.317Z,3.85
2022-10-31T06:10:28.689Z,3.90
2022-10-31T06:12:55.274Z,3.85
2022-10-31T06:15:24.540Z,4.40
2022-10-31T06:18:06.298Z,4.55
2022-10-31T06:20:34.049Z,3.97
2022-10-31T06:23:01.435Z,3.67
2022-10-31T06:25:28.839Z,4.07
2022-10-31T06:27:56.959Z,3.95
2022-10-31T06:30:23.639Z,4.22
2022-10-31T06:32:50.604Z,4.13
2022-10-31T06:35:17.952Z,4.53
2022-10-31T06:37:51.951Z,4.25
2022-10-31T06:40:18.622Z,5.13
2022-10-31T06:42:45.171Z,5.00
2022-10-31T06:45:11.856Z,4.63
2022-10-31T06:47:50.940Z,6.72
2022-10-31T06:50:25.194Z,5.32
2022-10-31T06:52:57.210Z,5.82
2022-10-31T06:55:25.578Z,6.40
2022-10-31T06:57:54.743Z,4.53
2022-10-31T07:00:26.487Z,4.50
2022-10-31T07:02:58.834Z,4.25
2022-10-31T07:05:26.656Z,5.47
2022-10-31T07:08:02.769Z,4.50
2022-10-31T07:10:34.371Z,4.45
2022-10-31T07:13:06.739Z,4.35
2022-10-31T07:15:38.751Z,4.43
2022-10-31T07:18:08.018Z,4.25
2022-10-31T07:20:35.223Z,3.92
2022-10-31T07:23:02.220Z,4.30
2022-10-31T07:25:29.398Z,4.50
2022-10-31T07:27:56.950Z,3.92
2022-10-31T07:30:23.627Z,3.95
2022-10-31T07:32:51.534Z,3.60
2022-10-31T07:35:25.595Z,4.38
2022-10-31T07:37:53.202Z,4.75
2022-10-31T07:40:20.505Z,4.07
2022-10-31T07:42:50.021Z,4.65
2022-10-31T07:45:21.015Z,4.43
2022-10-31T07:47:53.167Z,3.72
2022-10-31T07:50:33.327Z,3.97
2022-10-31T07:53:08.966Z,3.95
2022-10-31T07:55:36.498Z,3.90
2022-10-31T07:58:08.133Z,3.65
2022-10-31T08:00:36.945Z,4.30
2022-10-31T08:03:10.377Z,4.55
2022-10-31T08:05:37.546Z,4.07
2022-10-31T08:08:07.516Z,4.18
2022-10-31T08:10:35.586Z,4.60
2022-10-31T08:13:05.808Z,4.35
2022-10-31T08:15:34.935Z,4.55
2022-10-31T08:18:03.105Z,5.35
2022-10-31T08:20:30.013Z,5.40
2022-10-31T08:23:02.975Z,5.53
2022-10-31T08:25:35.391Z,7.00
2022-10-31T08:28:06.003Z,7.35
2022-10-31T08:30:36.399Z,6.95
2022-10-31T08:33:11.381Z,5.55
2022-10-31T08:35:38.703Z,5.50
2022-10-31T08:38:05.665Z,6.07
2022-10-31T08:40:34.490Z,6.07
2022-10-31T08:43:04.445Z,5.80
2022-10-31T08:45:33.755Z,6.43
2022-10-31T08:48:10.276Z,5.55
2022-10-31T08:50:38.556Z,5.38
2022-10-31T08:53:08.868Z,5.43
2022-10-31T08:55:36.671Z,5.55
2022-10-31T08:58:06.409Z,5.55
2022-10-31T09:00:34.606Z,5.68
2022-10-31T09:03:12.020Z,5.68
2022-10-31T09:05:38.780Z,5.68
2022-10-31T09:08:09.491Z,5.80
2022-10-31T09:10:40.710Z,5.85
2022-10-31T09:13:13.537Z,5.60
2022-10-31T09:15:42.628Z,5.82
2022-10-31T09:18:10.226Z,8.88
2022-10-31T09:20:39.181Z,6.80
2022-10-31T09:23:12.889Z,7.75
2022-10-31T09:25:40.236Z,7.97
2022-10-31T09:28:09.535Z,9.35
2022-10-31T09:30:36.890Z,8.10
2022-10-31T09:33:08.142Z,9.35
2022-10-31T09:35:34.972Z,8.80
2022-10-31T09:38:05.012Z,8.77
2022-10-31T09:40:40.068Z,9.40
2022-10-31T09:43:26.599Z,9.20
2022-10-31T09:46:08.204Z,9.23
2022-10-31T09:48:43.276Z,10.68
2022-10-31T09:51:13.780Z,9.85
2022-10-31T09:54:01.948Z,9.98
2022-10-31T09:56:29.708Z,10.57
2022-10-31T09:59:01.412Z,11.20
2022-10-31T10:01:48.653Z,11.35
2022-10-31T10:04:42.447Z,10.20
2022-10-31T10:07:23.813Z,11.57
2022-10-31T10:09:50.498Z,11.25
2022-10-31T10:12:57.708Z,9.82
2022-10-31T10:15:59.272Z,10.00
2022-10-31T10:18:46.782Z,9.63
2022-10-31T10:21:38.730Z,10.13
2022-10-31T10:24:31.402Z,9.32
2022-10-31T10:27:12.368Z,8.82
2022-10-31T10:29:52.275Z,8.63
2022-10-31T10:32:27.897Z,9.32
2022-10-31T10:35:20.853Z,9.55
2022-10-31T10:37:51.871Z,8.10
2022-10-31T10:40:24.403Z,9.02
2022-10-31T10:43:25.611Z,9.57
2022-10-31T10:46:41.760Z,8.40
2022-10-31T10:49:36.219Z,8.70
2022-10-31T10:52:43.443Z,8.15
2022-10-31T10:55:34.378Z,7.60
2022-10-31T10:58:11.359Z,8.05
2022-10-31T11:00:47.394Z,7.47
2022-10-31T11:03:18.720Z,7.05
2022-10-31T11:05:53.009Z,7.25
2022-10-31T11:08:27.479Z,7.00
2022-10-31T11:11:17.408Z,7.75
2022-10-31T11:13:47.281Z,7.30
2022-10-31T11:16:40.696Z,9.10
2022-10-31T11:19:27.323Z,7.53
2022-10-31T11:21:54.638Z,6.90
2022-10-31T11:24:26.184Z,7.03
2022-10-31T11:27:04.451Z,7.07
2022-10-31T11:29:30.995Z,6.45
2022-10-31T11:31:59.021Z,5.60
2022-10-31T11:34:54.791Z,6.70
2022-10-31T11:37:31.011Z,6.85
2022-10-31T11:40:02.424Z,6.10
2022-10-31T11:42:42.268Z,7.28
2022-10-31T11:45:32.526Z,5.72
2022-10-31T11:48:02.034Z,6.55
2022-10-31T11:50:39.627Z,5.68
2022-10-31T11:53:19.712Z,5.45
2022-10-31T11:56:06.054Z,6.25
2022-10-31T11:58:32.725Z,6.05
2022-10-31T12:00:59.422Z,6.10
2022-10-31T12:04:08.839Z,5.97
2022-10-31T12:06:41.986Z,5.30
2022-10-31T12:09:30.973Z,6.43
2022-10-31T12:12:34.550Z,5.80
2022-10-31T12:15:26.367Z,7.78
2022-10-31T12:18:23.096Z,6.88
2022-10-31T12:21:03.684Z,5.97
2022-10-31T12:23:47.707Z,5.75
2022-10-31T12:26:58.188Z,5.90
2022-10-31T12:30:09.575Z,5.45
2022-10-31T12:33:23.362Z,5.25
2022-10-31T12:36:19.882Z,5.13
2022-10-31T12:39:34.009Z,5.20
2022-10-31T12:42:46.374Z,5.35
2022-10-31T12:45:37.761Z,4.97
2022-10-31T12:48:38.102Z,5.50
2022-10-31T12:51:33.892Z,5.53
2022-10-31T12:54:17.925Z,4.65
2022-10-31T12:57:08.968Z,5.32
2022-10-31T12:59:42.929Z,4.95
2022-10-31T13:02:36.636Z,6.63
2022-10-31T13:05:20.494Z,6.13
2022-10-31T13:07:55.350Z,5.82
2022-10-31T13:10:37.858Z,4.72
2022-10-31T13:13:42.050Z,5.70
2022-10-31T13:16:20.174Z,4.63
2022-10-31T13:18:59.904Z,5.00
2022-10-31T13:21:58.611Z,5.28
2022-10-31T13:24:40.404Z,5.10
2022-10-31T13:27:29.167Z,4.30
2022-10-31T13:30:19.627Z,5.22
2022-10-31T13:33:20.850Z,5.38
2022-10-31T13:36:12.597Z,4.90
2022-10-31T13:39:30.485Z,5.70
2022-10-31T13:42:19.044Z,5.05
2022-10-31T13:44:45.634Z,4.03
2022-10-31T13:47:30.732Z,4.50
2022-10-31T13:50:31.782Z,4.22
2022-10-31T13:53:22.296Z,4.63
2022-10-31T13:56:08.537Z,4.55
2022-10-31T13:58:35.903Z,3.50
2022-10-31T14:01:11.825Z,4.30
2022-10-31T14:06:58.130Z,4.32
2022-10-31T14:09:32.879Z,4.65
2022-10-31T14:12:05.429Z,4.40
2022-10-31T14:14:43.087Z,4.25
2022-10-31T14:17:22.270Z,4.57
2022-10-31T14:20:12.101Z,4.82
2022-10-31T14:22:42.965Z,4.55
2022-10-31T14:25:33.983Z,4.28
2022-10-31T14:28:18.832Z,4.78
2022-10-31T14:30:57.411Z,4.55
2022-10-31T14:33:28.342Z,4.20
2022-10-31T14:39:01.603Z,3.80
2022-10-31T14:42:23.938Z,3.90
2022-10-31T14:45:23.696Z,4.75
2022-10-31T14:48:06.914Z,4.70
2022-10-31T14:50:53.028Z,4.15
2022-10-31T14:53:35.052Z,4.20
2022-10-31T14:56:06.687Z,4.18
2022-10-31T14:58:43.732Z,4.28
2022-10-31T15:01:31.158Z,3.92
2022-10-31T15:04:24.910Z,4.22
2022-10-31T15:07:26.846Z,4.18
2022-10-31T15:10:00.090Z,4.13
2022-10-31T15:12:33.776Z,3.75
2022-10-31T15:15:25.917Z,3.83
2022-10-31T15:17:59.408Z,4.20
2022-10-31T15:20:37.313Z,4.68
2022-10-31T15:23:04.031Z,3.72
2022-10-31T15:25:35.412Z,4.07
2022-10-31T15:28:02.322Z,3.83
2022-10-31T15:30:31.266Z,4.40
2022-10-31T15:32:58.959Z,4.05
2022-10-31T15:35:31.368Z,3.88
2022-10-31T15:38:00.347Z,4.05
2022-10-31T15:40:28.823Z,4.00
2022-10-31T15:43:01.281Z,3.85
2022-10-31T15:45:31.471Z,3.97
2022-10-31T15:48:04.431Z,4.03
2022-10-31T15:50:41.549Z,4.25
2022-10-31T15:53:23.621Z,3.60
2022-10-31T15:55:59.567Z,3.75
2022-10-31T15:58:27.903Z,3.58
2022-10-31T16:01:07.278Z,3.63
2022-10-31T16:03:34.975Z,3.97
2022-10-31T16:06:06.415Z,4.00
2022-10-31T16:08:51.296Z,3.90
2022-10-31T16:11:36.202Z,3.33
2022-10-31T16:14:11.712Z,3.33
2022-10-31T16:16:45.417Z,3.65
2022-10-31T16:19:27.484Z,3.65
2022-10-31T16:22:06.559Z,4.00
2022-10-31T16:24:50.527Z,4.30
2022-10-31T16:27:29.441Z,3.88
2022-10-31T16:30:07.457Z,4.43
2022-10-31T16:32:37.456Z,3.80
2022-10-31T16:35:10.214Z,4.40
2022-10-31T16:37:41.304Z,4.10
2022-10-31T16:40:16.227Z,4.47
2022-10-31T16:42:44.413Z,3.85
2022-10-31T16:45:22.125Z,4.10
2022-10-31T16:47:49.587Z,4.03
2022-10-31T16:50:26.861Z,4.38
2022-10-31T16:53:12.824Z,4.13
2022-10-31T16:55:47.088Z,3.55
2022-10-31T16:58:22.990Z,4.63
2022-10-31T17:00:50.225Z,43.60
2022-10-31T17:03:17.065Z,26.23
2022-10-31T17:05:43.792Z,21.45
2022-10-31T17:08:10.738Z,16.20
2022-10-31T17:10:38.326Z,14.18
2022-10-31T17:13:07.093Z,8.68
2022-10-31T17:15:44.737Z,6.85
2022-10-31T17:18:16.227Z,6.10
2022-10-31T17:20:44.240Z,5.68
2022-10-31T17:23:13.217Z,5.55
2022-10-31T17:25:40.561Z,4.78
2022-10-31T17:28:11.404Z,5.00
2022-10-31T17:30:38.215Z,4.78
2022-10-31T17:33:04.857Z,4.53
2022-10-31T17:35:31.513Z,4.35
2022-10-31T17:37:58.122Z,4.15
2022-10-31T17:40:25.033Z,4.80
2022-10-31T17:42:54.786Z,4.90
2022-10-31T17:45:22.843Z,4.55
2022-10-31T17:47:52.108Z,3.97
2022-10-31T17:50:22.207Z,5.75
2022-10-31T17:52:49.419Z,4.50
2022-10-31T17:55:16.796Z,4.13
2022-10-31T17:57:44.307Z,4.63
2022-10-31T18:00:18.140Z,4.50
2022-10-31T18:02:44.944Z,3.80
2022-10-31T18:05:11.910Z,4.72
2022-10-31T18:07:38.868Z,4.13
2022-10-31T18:10:06.681Z,4.18
2022-10-31T18:12:36.813Z,4.32
2022-10-31T18:15:04.568Z,5.05
2022-10-31T18:17:32.000Z,4.28
2022-10-31T18:19:58.735Z,5.38
2022-10-31T18:22:25.380Z,5.03
2022-10-31T18:24:51.951Z,4.28
2022-10-31T18:27:19.686Z,3.97
2022-10-31T18:29:46.330Z,4.78
2022-10-31T18:32:12.930Z,3.53
2022-10-31T18:34:39.547Z,4.38
2022-10-31T18:37:06.234Z,4.68
2022-10-31T18:39:33.018Z,4.53
2022-10-31T18:41:59.618Z,4.30
2022-10-31T18:44:27.680Z,3.78
2022-10-31T18:46:54.465Z,3.97
2022-10-31T18:49:23.777Z,5.13
2022-10-31T18:51:50.818Z,4.13
2022-10-31T18:54:17.841Z,5.05
2022-10-31T18:56:44.733Z,4.38
2022-10-31T18:59:12.186Z,5.90
2022-10-31T19:01:39.810Z,4.88
2022-10-31T19:04:06.817Z,4.30
2022-10-31T19:06:33.948Z,3.72
2022-10-31T19:09:05.958Z,4.47
2022-10-31T19:11:34.302Z,4.55
2022-10-31T19:14:01.297Z,4.80
2022-10-31T19:16:28.917Z,4.80
2022-10-31T19:18:57.119Z,5.03
2022-10-31T19:21:24.446Z,5.03
2022-10-31T19:23:53.711Z,5.30
2022-10-31T19:26:20.492Z,5.90
2022-10-31T19:28:47.314Z,4.90
2022-10-31T19:31:14.051Z,4.40
2022-10-31T19:33:40.706Z,4.65
2022-10-31T19:36:14.217Z,4.82
2022-10-31T19:38:45.865Z,5.63
2022-10-31T19:41:16.881Z,4.53
2022-10-31T19:43:44.086Z,4.53
2022-10-31T19:46:22.451Z,4.88
2022-10-31T19:48:55.194Z,5.20
2022-10-31T19:51:22.194Z,4.85
2022-10-31T19:53:52.421Z,5.13
2022-10-31T19:56:22.793Z,4.80
2022-10-31T19:58:49.409Z,4.50
2022-10-31T20:01:20.878Z,4.47
2022-10-31T20:03:48.655Z,4.43
2022-10-31T20:06:32.404Z,4.90
2022-10-31T20:09:01.304Z,5.05
2022-10-31T20:11:28.773Z,4.40
2022-10-31T20:13:57.353Z,4.00
2022-10-31T20:16:24.893Z,4.32
2022-10-31T20:18:51.801Z,4.60
2022-10-31T20:21:28.455Z,4.53
2022-10-31T20:24:01.130Z,4.00
2022-10-31T20:26:29.353Z,4.55
2022-10-31T20:28:57.767Z,4.43
2022-10-31T20:31:28.316Z,4.15
2022-10-31T20:33:55.773Z,4.63
2022-10-31T20:36:23.284Z,4.50
2022-10-31T20:38:52.232Z,4.60
2022-10-31T20:41:19.545Z,4.95
2022-10-31T20:43:46.566Z,4.18
2022-10-31T20:46:23.365Z,4.57
2022-10-31T20:48:50.822Z,4.43
2022-10-31T20:51:24.668Z,4.97
2022-10-31T20:53:53.295Z,4.88
2022-10-31T20:56:22.782Z,4.43
2022-10-31T20:58:50.313Z,4.25
2022-10-31T21:01:26.155Z,4.40
2022-10-31T21:03:54.140Z,4.68
2022-10-31T21:06:23.161Z,4.80
2022-10-31T21:08:50.837Z,4.32
2022-10-31T21:11:21.126Z,4.53
2022-10-31T21:13:49.198Z,4.35
2022-10-31T21:16:22.240Z,4.25
2022-10-31T21:18:50.147Z,4.07
2022-10-31T21:21:32.113Z,4.45
2022-10-31T21:24:05.337Z,4.20
2022-10-31T21:26:40.262Z,4.45
2022-10-31T21:29:08.242Z,4.30
2022-10-31T21:31:36.778Z,3.35
2022-10-31T21:34:03.870Z,4.57
2022-10-31T21:36:30.826Z,3.90
2022-10-31T21:38:57.639Z,4.40
2022-10-31T21:41:25.614Z,3.90
2022-10-31T21:43:54.250Z,4.65
2022-10-31T21:46:25.199Z,4.00
2022-10-31T21:48:52.658Z,5.28
2022-10-31T21:51:29.085Z,4.63
2022-10-31T21:54:15.371Z,4.53
2022-10-31T21:56:42.262Z,3.92
2022-10-31T21:59:09.074Z,4.13
2022-10-31T22:01:36.353Z,4.22
2022-10-31T22:04:04.346Z,4.10
2022-10-31T22:06:31.148Z,3.75
2022-10-31T22:09:00.092Z,3.95
2022-10-31T22:11:28.333Z,4.00
2022-10-31T22:13:55.931Z,3.78
2022-10-31T22:16:25.076Z,3.50
2022-10-31T22:18:55.032Z,4.25
2022-10-31T22:21:25.527Z,3.50
2022-10-31T22:23:54.625Z,3.95
2022-10-31T22:26:21.685Z,4.18
2022-10-31T22:28:55.854Z,4.25
2022-10-31T22:31:24.246Z,3.40
2022-10-31T22:33:52.002Z,3.50
2022-10-31T22:36:22.693Z,3.67
2022-10-31T22:38:49.806Z,3.85
2022-10-31T22:41:20.400Z,4.07
2022-10-31T22:43:47.750Z,4.38
2022-10-31T22:46:36.123Z,4.38
2022-10-31T22:49:14.790Z,3.95
2022-10-31T22:51:42.886Z,3.70
2022-10-31T22:54:18.023Z,4.07
2022-10-31T22:56:44.938Z,3.88
2022-10-31T22:59:16.522Z,4.43
2022-10-31T23:01:47.280Z,4.15
2022-10-31T23:04:16.267Z,4.15
2022-10-31T23:06:43.431Z,3.70
2022-10-31T23:09:15.567Z,3.80
2022-10-31T23:11:42.571Z,4.97
2022-10-31T23:14:19.330Z,4.90
2022-10-31T23:16:52.883Z,5.10
2022-10-31T23:19:28.802Z,4.53
2022-10-31T23:22:04.763Z,3.67
2022-10-31T23:24:44.058Z,4.03
2022-10-31T23:27:23.630Z,4.05
2022-10-31T23:29:51.267Z,4.30
2022-10-31T23:32:28.043Z,4.38
2022-10-31T23:34:57.795Z,3.75
2022-10-31T23:37:27.652Z,4.40
2022-10-31T23:39:56.177Z,4.38
2022-10-31T23:42:24.611Z,4.43
2022-10-31T23:44:51.774Z,4.05
2022-10-31T23:47:19.341Z,4.10
2022-10-31T23:49:46.541Z,4.68
2022-10-31T23:52:14.542Z,5.13
2022-10-31T23:54:41.435Z,4.63
2022-10-31T23:57:09.615Z,4.75
2022-10-31T23:59:36.728Z,4.72
